Time;durP1;ratioP1;P1;durP2;ratioP2;P2;SDS_P1;SDS_P2;PMS_P1;PMS_P2;Temp;Humidity;BMP_temperature;BMP_pressure;BME280_temperature;BME280_humidity;BME280_pressure;Samples;Min_cycle;Max_cycle;Signal;HPM_P1;HPM_P2
2023/11/16 00:01:59;;;;;;;1.13;0.40;;;;;;;14.06;100.00;102258.81;5032512;28;20470;-69
2023/11/16 00:04:26;;;;;;;0.60;0.30;;;;;;;14.11;100.00;102262.19;5049807;28;20033;-69
2023/11/16 00:06:52;;;;;;;0.50;0.30;;;;;;;13.75;100.00;102192.50;5032242;28;20495;-70
2023/11/16 00:09:18;;;;;;;0.55;0.38;;;;;;;13.73;100.00;102175.44;5031950;28;20094;-69
2023/11/16 00:11:44;;;;;;;1.05;0.40;;;;;;;13.72;100.00;102171.22;5050170;28;20075;-69
2023/11/16 00:14:10;;;;;;;0.60;0.40;;;;;;;13.83;100.00;102190.75;5050076;28;20029;-69
2023/11/16 00:16:37;;;;;;;0.55;0.30;;;;;;;13.83;100.00;102177.97;5050203;28;20021;-69
2023/11/16 00:19:05;;;;;;;0.30;0.30;;;;;;;14.18;100.00;102199.91;5030571;28;20025;-70
2023/11/16 00:21:31;;;;;;;0.60;0.40;;;;;;;13.98;100.00;102100.31;5032240;28;20033;-69
2023/11/16 00:23:57;;;;;;;0.30;0.30;;;;;;;13.47;100.00;102023.97;5048652;28;20055;-69
2023/11/16 00:26:22;;;;;;;0.65;0.30;;;;;;;13.77;100.00;102083.38;5050388;28;20484;-69
2023/11/16 00:28:48;;;;;;;1.83;0.40;;;;;;;13.82;100.00;102120.03;5049537;28;20037;-69
2023/11/16 00:31:15;;;;;;;0.75;0.40;;;;;;;13.35;100.00;102011.28;5050082;28;20045;-70
2023/11/16 00:33:45;;;;;;;0.60;0.40;;;;;;;13.78;100.00;102104.69;5049640;28;20112;-70
2023/11/16 00:36:11;;;;;;;0.65;0.40;;;;;;;13.82;100.00;102102.13;5048675;28;20040;-70
2023/11/16 00:38:38;;;;;;;1.35;0.30;;;;;;;13.67;100.00;102043.41;5049228;28;20033;-69
2023/11/16 00:41:06;;;;;;;1.88;0.40;;;;;;;13.60;100.00;102011.09;5049783;28;20027;-69
2023/11/16 00:43:34;;;;;;;1.15;0.30;;;;;;;13.77;100.00;102098.72;5049551;28;20028;-69
2023/11/16 00:46:01;;;;;;;0.30;0.30;;;;;;;13.90;100.00;102161.72;5049827;28;20035;-69
2023/11/16 00:48:27;;;;;;;1.38;0.40;;;;;;;13.52;100.00;102135.53;5048913;28;20036;-69
2023/11/16 00:50:53;;;;;;;0.80;0.40;;;;;;;13.91;100.00;102212.00;5049637;28;20025;-69
2023/11/16 00:53:18;;;;;;;0.50;0.30;;;;;;;13.73;100.00;102209.56;5047621;28;20117;-69
2023/11/16 00:55:44;;;;;;;0.40;0.30;;;;;;;13.56;100.00;102216.47;5048074;28;20501;-69
2023/11/16 00:58:09;;;;;;;0.60;0.30;;;;;;;13.92;100.00;102303.22;5049323;28;20021;-69
2023/11/16 01:00:35;;;;;;;0.82;0.30;;;;;;;13.94;100.00;102360.31;5049143;28;20059;-69
2023/11/16 01:03:03;;;;;;;0.50;0.30;;;;;;;13.46;100.00;102304.25;5048462;28;20032;-68
2023/11/16 01:05:29;;;;;;;0.73;0.30;;;;;;;13.84;100.00;102386.78;5049418;28;22225;-69
2023/11/16 01:07:54;;;;;;;2.30;0.30;;;;;;;13.48;100.00;102319.56;5048427;28;20116;-69
2023/11/16 01:10:24;;;;;;;2.00;0.30;;;;;;;13.72;100.00;102345.94;5048826;28;20037;-68
2023/11/16 01:12:53;;;;;;;1.75;0.30;;;;;;;14.10;100.00;102401.22;5048678;28;20025;-69
2023/11/16 01:15:20;;;;;;;1.23;0.50;;;;;;;13.97;100.00;102412.31;5048596;28;20348;-69
2023/11/16 01:17:46;;;;;;;0.50;0.38;;;;;;;13.49;100.00;102359.63;5049339;28;20120;-69
2023/11/16 01:20:18;;;;;;;0.38;0.30;;;;;;;13.59;100.00;102363.81;5047549;28;20112;-69
2023/11/16 01:23:10;;;;;;;0.30;0.30;;;;;;;14.09;100.00;102436.19;5047720;28;20458;-69
2023/11/16 01:25:40;;;;;;;;;;;;;;;14.02;100.00;102425.97;5049190;28;20031;-70
2023/11/16 01:28:06;;;;;;;0.85;0.30;;;;;;;13.44;100.00;102374.94;5030527;28;19917;-69
2023/11/16 01:30:31;;;;;;;0.50;0.35;;;;;;;13.60;100.00;102391.97;5047332;28;20033;-70
2023/11/16 01:32:58;;;;;;;2.40;0.43;;;;;;;13.67;100.00;102415.78;5048815;28;20037;-70
2023/11/16 01:35:25;;;;;;;0.50;0.30;;;;;;;13.52;100.00;102405.59;5048065;28;20029;-69
2023/11/16 01:37:52;;;;;;;0.30;0.30;;;;;;;13.59;100.00;102430.28;5048633;28;20407;-70
2023/11/16 01:40:18;;;;;;;0.52;0.20;;;;;;;13.87;100.00;102478.84;5048391;28;20025;-69
2023/11/16 01:42:44;;;;;;;1.20;0.30;;;;;;;13.59;100.00;102433.72;5048720;28;20109;-69
2023/11/16 01:45:28;;;;;;;0.65;0.30;;;;;;;13.85;100.00;102515.50;5047832;28;20025;-69
2023/11/16 01:47:55;;;;;;;0.82;0.40;;;;;;;13.94;100.00;102547.03;5047942;28;20029;-69
2023/11/16 01:50:21;;;;;;;2.92;0.65;;;;;;;13.54;100.00;102518.91;5047873;28;20086;-70
2023/11/16 01:52:47;;;;;;;0.50;0.30;;;;;;;13.42;100.00;102516.34;5047107;28;20116;-69
2023/11/16 01:55:13;;;;;;;0.95;0.35;;;;;;;13.69;100.00;102572.59;5046775;28;20044;-69
2023/11/16 01:57:38;;;;;;;0.95;0.40;;;;;;;13.70;100.00;102595.66;5048412;28;20029;-69
2023/11/16 02:00:04;;;;;;;0.60;0.35;;;;;;;13.69;100.00;102588.81;5047584;28;20108;-69
2023/11/16 02:02:31;;;;;;;0.45;0.30;;;;;;;13.46;100.00;102546.16;5048394;28;20033;-69
2023/11/16 02:04:59;;;;;;;0.70;0.22;;;;;;;13.68;100.00;102576.03;5047224;28;20496;-70
2023/11/16 02:07:25;;;;;;;3.55;0.40;;;;;;;13.48;100.00;102550.44;5046596;28;20024;-69
2023/11/16 02:09:50;;;;;;;1.02;0.50;;;;;;;13.41;100.00;102543.59;5047208;28;20423;-70
2023/11/16 02:12:16;;;;;;;1.17;0.30;;;;;;;13.69;100.00;102590.50;5047243;28;20025;-70
2023/11/16 02:14:41;;;;;;;1.10;0.50;;;;;;;13.37;100.00;102557.22;5047443;28;20025;-69
2023/11/16 02:17:07;;;;;;;1.15;0.50;;;;;;;13.49;100.00;102587.91;5047536;28;20029;-70
2023/11/16 02:19:32;;;;;;;1.15;0.50;;;;;;;13.26;100.00;102522.28;5029262;28;20509;-69
2023/11/16 02:21:59;;;;;;;0.80;0.60;;;;;;;13.30;100.00;102554.66;5047710;28;20024;-70
2023/11/16 02:24:24;;;;;;;0.95;0.60;;;;;;;13.07;100.00;102505.22;5047656;28;20025;-70
2023/11/16 02:26:51;;;;;;;0.60;0.50;;;;;;;13.12;100.00;102523.94;5045729;28;20515;-70
2023/11/16 02:29:17;;;;;;;0.95;0.70;;;;;;;12.74;100.00;102470.16;5029290;28;20491;-69
2023/11/16 02:31:42;;;;;;;1.30;0.70;;;;;;;13.33;100.00;102550.41;5029722;28;20040;-69
2023/11/16 02:34:08;;;;;;;1.02;0.50;;;;;;;13.35;100.00;102558.91;5047248;28;20032;-70
2023/11/16 02:36:34;;;;;;;0.70;0.40;;;;;;;12.74;100.00;102462.50;5047403;28;20385;-70
2023/11/16 02:39:01;;;;;;;0.73;0.30;;;;;;;12.96;100.00;102505.13;5044973;28;20036;-70
2023/11/16 02:41:27;;;;;;;0.32;0.30;;;;;;;13.26;100.00;102505.25;5046536;28;20029;-70
2023/11/16 02:43:53;;;;;;;1.00;0.30;;;;;;;13.20;100.00;102507.78;5047484;28;20031;-70
2023/11/16 02:46:19;;;;;;;1.17;0.32;;;;;;;13.31;100.00;102541.03;5046747;28;20119;-71
2023/11/16 02:48:44;;;;;;;0.63;0.30;;;;;;;13.04;100.00;102485.63;5046136;28;20109;-70
2023/11/16 02:51:10;;;;;;;2.17;0.40;;;;;;;13.26;100.00;102532.50;5045581;28;20055;-70
2023/11/16 02:53:36;;;;;;;2.63;0.40;;;;;;;13.14;100.00;102506.91;5046840;28;20087;-71
2023/11/16 02:56:03;;;;;;;1.05;0.35;;;;;;;13.00;100.00;102477.06;5029275;28;20110;-70
2023/11/16 02:58:29;;;;;;;0.80;0.47;;;;;;;13.01;100.00;102470.28;5046682;28;20469;-70
2023/11/16 03:00:54;;;;;;;0.52;0.30;;;;;;;13.39;100.00;102527.41;5046594;28;20040;-70
2023/11/16 03:03:20;;;;;;;0.50;0.30;;;;;;;12.78;100.00;102410.63;5046743;28;20040;-71
2023/11/16 03:05:46;;;;;;;1.30;0.20;;;;;;;13.48;100.00;102493.34;5046386;28;20047;-70
2023/11/16 03:08:11;;;;;;;0.40;0.30;;;;;;;12.76;100.00;102379.13;5046712;28;20104;-71
2023/11/16 03:10:37;;;;;;;1.38;0.60;;;;;;;13.41;100.00;102500.16;5028866;28;20041;-70
2023/11/16 03:13:03;;;;;;;1.33;0.80;;;;;;;13.26;100.00;102466.94;5046655;28;20392;-70
2023/11/16 03:15:29;;;;;;;0.55;0.38;;;;;;;13.04;100.00;102421.78;5046878;28;20412;-70
2023/11/16 03:17:56;;;;;;;0.28;0.28;;;;;;;13.37;100.00;102488.22;5046737;28;20036;-70
2023/11/16 03:20:23;;;;;;;0.52;0.22;;;;;;;13.45;100.00;102513.81;5044455;28;20036;-70
2023/11/16 03:22:49;;;;;;;0.80;0.30;;;;;;;13.24;100.00;102509.50;5028833;28;20033;-70
2023/11/16 03:25:16;;;;;;;0.70;0.40;;;;;;;13.27;100.00;102529.94;5046663;28;20032;-70
2023/11/16 03:27:43;;;;;;;0.65;0.30;;;;;;;12.48;100.00;102420.75;5046726;28;20487;-70
2023/11/16 03:30:09;;;;;;;0.90;0.30;;;;;;;13.03;100.00;102535.84;5046336;28;20567;-70
2023/11/16 03:32:35;;;;;;;1.45;0.40;;;;;;;12.93;100.00;102531.50;5045523;28;20104;-70
2023/11/16 03:35:02;;;;;;;1.73;0.35;;;;;;;12.57;100.00;102498.19;5045931;28;20108;-70
2023/11/16 03:37:31;;;;;;;0.98;0.40;;;;;;;13.05;100.00;102576.72;5046752;28;20029;-69
2023/11/16 03:39:57;;;;;;;0.40;0.40;;;;;;;12.37;100.00;102466.63;5046031;28;20108;-69
2023/11/16 03:42:23;;;;;;;0.50;0.30;;;;;;;12.85;100.00;102532.34;5045391;28;20136;-70
2023/11/16 03:44:50;;;;;;;0.70;0.40;;;;;;;12.99;100.00;102569.84;5046542;28;20517;-69
2023/11/16 03:47:15;;;;;;;1.98;0.50;;;;;;;12.54;100.00;102515.22;5027444;28;20446;-70
2023/11/16 03:49:41;;;;;;;0.85;0.50;;;;;;;12.90;100.00;102574.06;5046084;28;20036;-70
2023/11/16 03:52:06;;;;;;;1.33;0.50;;;;;;;12.83;100.00;102577.44;5028016;28;20033;-70
2023/11/16 03:54:32;;;;;;;1.25;0.50;;;;;;;12.27;100.00;102490.38;5045597;28;20445;-70
2023/11/16 03:56:58;;;;;;;1.48;0.70;;;;;;;12.82;100.00;102575.72;5046347;28;20024;-71
2023/11/16 03:59:26;;;;;;;2.35;0.70;;;;;;;12.44;100.00;102503.25;5046423;28;21483;-70
2023/11/16 04:01:51;;;;;;;1.10;0.40;;;;;;;13.06;100.00;102586.09;5046642;28;20040;-70
2023/11/16 04:04:19;;;;;;;0.82;0.50;;;;;;;13.07;100.00;102590.38;5045826;28;20029;-72
2023/11/16 04:06:44;;;;;;;1.08;0.40;;;;;;;13.11;100.00;102593.78;5046005;28;20075;-71
2023/11/16 04:09:11;;;;;;;0.63;0.40;;;;;;;12.62;100.00;102534.78;5046359;28;20025;-72
2023/11/16 04:11:41;;;;;;;0.70;0.40;;;;;;;12.88;100.00;102601.28;5046567;28;20029;-71
2023/11/16 04:14:07;;;;;;;1.85;0.50;;;;;;;13.09;100.00;102611.66;5046540;28;20029;-70
2023/11/16 04:16:34;;;;;;;1.08;0.40;;;;;;;12.63;100.00;102554.38;5046455;28;20032;-71
2023/11/16 04:18:59;;;;;;;0.50;0.30;;;;;;;12.91;100.00;102631.97;5027418;28;20041;-70
2023/11/16 04:21:25;;;;;;;1.10;0.47;;;;;;;12.74;100.00;102629.31;5044987;28;20052;-70
2023/11/16 04:23:56;;;;;;;2.60;0.50;;;;;;;12.32;100.00;102587.34;5046386;28;20029;-70
2023/11/16 04:26:36;;;;;;;1.23;0.40;;;;;;;12.54;100.00;102638.53;5045932;28;20032;-69
2023/11/16 04:29:04;;;;;;;0.57;0.47;;;;;;;12.24;100.00;102599.22;5046239;28;20543;-70
2023/11/16 04:31:30;;;;;;;1.95;0.50;;;;;;;12.36;100.00;102615.44;5042069;28;20025;-70
2023/11/16 04:33:57;;;;;;;1.08;0.35;;;;;;;12.25;100.00;102572.84;5027208;28;20036;-69
2023/11/16 04:36:28;;;;;;;0.98;0.50;;;;;;;12.37;100.00;102573.78;5027861;28;20039;-70
2023/11/16 04:38:57;;;;;;;2.22;0.50;;;;;;;12.38;100.00;102557.63;5046558;28;20032;-74
2023/11/16 04:41:27;;;;;;;0.90;0.38;;;;;;;12.72;100.00;102612.25;5046882;28;20041;-73
2023/11/16 04:43:57;;;;;;;1.48;0.73;;;;;;;12.73;100.00;102619.09;5031476;28;20029;-71
2023/11/16 04:46:28;;;;;;;0.77;0.50;;;;;;;12.31;100.00;102557.56;5047447;28;20029;-72
2023/11/16 04:48:54;;;;;;;1.23;0.50;;;;;;;12.26;100.00;102565.19;5049768;28;20483;-72
2023/11/16 04:51:21;;;;;;;1.75;0.90;;;;;;;12.70;100.00;102644.59;5049579;28;20036;-71
2023/11/16 04:53:47;;;;;;;0.88;0.80;;;;;;;12.47;100.00;102607.88;5050639;28;20037;-75
2023/11/16 04:56:13;;;;;;;2.15;1.20;;;;;;;12.57;100.00;102645.38;5048608;28;20037;-71
2023/11/16 04:58:41;;;;;;;1.35;0.70;;;;;;;12.43;100.00;102657.16;5049978;28;20565;-78
2023/11/16 05:01:07;;;;;;;1.80;0.70;;;;;;;12.49;100.00;102664.88;5047974;28;20031;-74
2023/11/16 05:03:32;;;;;;;1.65;1.10;;;;;;;12.13;100.00;102588.91;5049560;28;20037;-74
2023/11/16 05:05:58;;;;;;;1.45;0.80;;;;;;;12.07;100.00;102573.56;5047985;28;20833;-75
2023/11/16 05:08:25;;;;;;;2.33;1.10;;;;;;;12.40;100.00;102634.19;5050493;28;20051;-73
2023/11/16 05:10:52;;;;;;;3.22;1.85;;;;;;;12.67;100.00;102700.75;5048766;28;20028;-75
2023/11/16 05:13:20;;;;;;;2.20;1.77;;;;;;;12.49;100.00;102693.81;5049629;28;20044;-75
2023/11/16 05:15:45;;;;;;;1.33;0.63;;;;;;;12.77;100.00;102699.97;5032124;28;20037;-75
2023/11/16 05:18:11;;;;;;;2.97;0.90;;;;;;;12.30;100.00;102630.69;5049993;28;20033;-73
2023/11/16 05:20:37;;;;;;;2.30;1.27;;;;;;;12.41;100.00;102675.03;5048995;28;20029;-71
2023/11/16 05:23:03;;;;;;;2.80;0.90;;;;;;;12.63;100.00;102706.66;5049299;28;20032;-74
2023/11/16 05:25:29;;;;;;;1.77;0.90;;;;;;;12.61;100.00;102701.56;5048589;28;20032;-71
2023/11/16 05:27:54;;;;;;;1.58;0.88;;;;;;;12.40;100.00;102662.25;5044817;28;20028;-72
2023/11/16 05:30:20;;;;;;;3.58;1.13;;;;;;;12.71;100.00;102705.88;5048550;28;20021;-74
2023/11/16 05:32:46;;;;;;;2.05;0.73;;;;;;;12.67;100.00;102700.75;5049733;28;20033;-72
2023/11/16 05:35:12;;;;;;;1.40;0.60;;;;;;;12.42;100.00;102655.47;5031285;28;20093;-75
2023/11/16 05:37:38;;;;;;;2.03;0.80;;;;;;;12.70;100.00;102713.50;5047951;28;20454;-72
2023/11/16 05:40:05;;;;;;;3.85;1.27;;;;;;;12.51;100.00;102651.28;5046500;28;20035;-74
2023/11/16 05:42:31;;;;;;;1.73;0.90;;;;;;;12.99;100.00;102740.13;5029940;28;20029;-74
2023/11/16 05:44:57;;;;;;;22.55;2.47;;;;;;;13.22;100.00;102718.16;5049417;28;20540;-77
2023/11/16 05:47:23;;;;;;;4.35;0.85;;;;;;;12.91;100.00;102734.94;5049296;28;20040;-76
2023/11/16 05:49:49;;;;;;;1.98;0.80;;;;;;;14.90;100.00;102744.97;5031448;28;20029;-74
2023/11/16 05:52:15;;;;;;;1.38;0.90;;;;;;;16.59;100.00;102751.94;5047983;28;20174;-74
2023/11/16 05:54:40;;;;;;;2.00;0.73;;;;;;;14.35;100.00;102533.38;5046508;28;20565;-72
2023/11/16 05:57:06;;;;;;;1.90;0.80;;;;;;;13.35;100.00;102506.97;5046809;28;20654;-72
2023/11/16 05:59:31;;;;;;;0.90;0.50;;;;;;;13.36;100.00;102542.75;5048078;28;20029;-72
2023/11/16 06:01:57;;;;;;;1.83;0.80;;;;;;;13.07;100.00;102471.16;5030527;28;20071;-72
2023/11/16 06:04:22;;;;;;;1.58;0.80;;;;;;;13.62;100.00;102555.56;5048652;28;20454;-74
2023/11/16 06:06:49;;;;;;;4.28;0.68;;;;;;;15.21;100.00;102510.81;5049179;28;20077;-72
2023/11/16 06:09:14;;;;;;;1.88;0.68;;;;;;;17.90;100.00;102376.41;5048814;28;20423;-72
2023/11/16 06:11:43;;;;;;;3.85;0.90;;;;;;;18.62;100.00;102052.72;5049160;28;20044;-73
2023/11/16 06:14:09;;;;;;;1.83;0.82;;;;;;;18.86;100.00;101731.53;5049068;28;20075;-72
2023/11/16 06:16:43;;;;;;;3.38;1.20;;;;;;;17.84;100.00;101358.22;5049063;28;20108;-74
2023/11/16 06:19:08;;;;;;;20.17;12.02;;;;;;;19.08;100.00;101231.41;5048306;28;20112;-74
2023/11/16 06:21:35;;;;;;;7.80;5.90;;;;;;;19.09;100.00;101071.50;5048186;28;20076;-73
2023/11/16 06:24:00;;;;;;;11.20;9.27;;;;;;;18.17;100.00;100933.94;5049271;28;20060;-74
2023/11/16 06:26:27;;;;;;;6.07;5.47;;;;;;;18.58;100.00;100881.41;5049172;28;20029;-74
2023/11/16 06:28:52;;;;;;;3.33;1.73;;;;;;;20.07;100.00;100911.00;5031459;28;20047;-74
2023/11/16 06:31:19;;;;;;;1.05;0.60;;;;;;;18.07;100.00;100832.28;5049756;28;20491;-75
2023/11/16 06:33:44;;;;;;;1.23;0.70;;;;;;;18.48;100.00;100959.22;5048263;28;20029;-74
2023/11/16 06:36:10;;;;;;;1.67;0.90;;;;;;;19.79;100.00;100994.19;5049206;28;20033;-75
2023/11/16 06:38:35;;;;;;;1.67;0.82;;;;;;;18.80;100.00;101088.25;5048948;28;20415;-76
2023/11/16 06:41:01;;;;;;;4.28;1.00;;;;;;;18.65;100.00;101106.13;5048659;28;20036;-75
2023/11/16 06:43:26;;;;;;;2.33;0.85;;;;;;;19.34;100.00;101252.63;5048651;28;20021;-74
2023/11/16 06:45:52;;;;;;;1.88;1.30;;;;;;;17.48;100.00;101241.16;5047581;28;20036;-75
2023/11/16 06:48:19;;;;;;;2.40;1.13;;;;;;;16.65;100.00;101340.78;5049445;28;20029;-73
2023/11/16 06:50:45;;;;;;;3.45;1.63;;;;;;;15.49;100.00;101319.31;5047610;28;20036;-74
2023/11/16 06:53:11;;;;;;;3.25;1.02;;;;;;;14.61;100.00;101348.81;5047494;28;20032;-75
2023/11/16 06:55:38;;;;;;;1.42;1.00;;;;;;;14.48;100.00;101363.59;5030516;28;20471;-73
2023/11/16 06:58:06;;;;;;;1.05;0.75;;;;;;;14.78;100.00;101449.13;5048949;28;20029;-74
2023/11/16 07:00:32;;;;;;;1.42;1.00;;;;;;;15.30;100.00;101454.75;5049105;28;20029;-75
2023/11/16 07:02:57;;;;;;;5.07;1.20;;;;;;;13.97;100.00;101412.34;5048797;28;20029;-75
2023/11/16 07:05:23;;;;;;;4.22;1.40;;;;;;;14.32;100.00;101468.88;5047792;28;20060;-74
2023/11/16 07:07:49;;;;;;;2.38;0.88;;;;;;;13.98;100.00;101375.69;5049055;28;20056;-75
2023/11/16 07:10:15;;;;;;;3.50;1.10;;;;;;;14.15;100.00;101360.84;5048429;28;20028;-75
2023/11/16 07:12:42;;;;;;;1.73;0.80;;;;;;;14.14;100.00;101351.50;5048684;28;20052;-75
2023/11/16 07:15:12;;;;;;;1.27;0.80;;;;;;;13.82;100.00;101331.69;5049148;28;20029;-75
2023/11/16 07:17:40;;;;;;;2.28;0.70;;;;;;;13.76;100.00;101330.09;5047767;28;20057;-75
2023/11/16 07:20:09;;;;;;;1.80;1.00;;;;;;;14.33;100.00;101420.22;5048788;28;20043;-75
2023/11/16 07:22:35;;;;;;;2.90;0.80;;;;;;;13.89;100.00;101254.00;5048358;28;20029;-75
2023/11/16 07:25:04;;;;;;;2.97;1.02;;;;;;;14.16;100.00;101313.97;5047423;28;20392;-74
2023/11/16 07:27:30;;;;;;;5.85;2.05;;;;;;;14.00;100.00;101253.78;5048615;28;20032;-75
2023/11/16 07:29:56;;;;;;;5.28;1.92;;;;;;;14.02;100.00;101255.44;5048625;28;20060;-77
2023/11/16 07:32:21;;;;;;;10.20;3.00;;;;;;;14.15;100.00;101259.41;5048458;28;20075;-74
2023/11/16 07:34:47;;;;;;;3.22;1.35;;;;;;;14.20;100.00;101249.06;5048410;28;20151;-72
2023/11/16 07:37:13;;;;;;;4.63;1.90;;;;;;;14.26;100.00;101310.34;5048209;28;20031;-74
2023/11/16 07:39:38;;;;;;;10.13;3.70;;;;;;;14.49;100.00;101308.13;5030219;28;20151;-75
2023/11/16 07:42:04;;;;;;;3.28;1.88;;;;;;;14.14;100.00;101250.06;5047768;28;20032;-72
2023/11/16 07:44:30;;;;;;;10.20;4.53;;;;;;;14.24;100.00;101269.41;5046753;28;20043;-75
2023/11/16 07:46:55;;;;;;;2.47;1.45;;;;;;;14.19;100.00;101261.00;5047754;28;20111;-75
2023/11/16 07:49:22;;;;;;;2.03;1.15;;;;;;;14.08;100.00;101234.84;5047358;28;20028;-75
2023/11/16 07:51:47;;;;;;;1.75;1.20;;;;;;;14.19;100.00;101260.16;5046697;28;20024;-71
2023/11/16 07:54:15;;;;;;;8.38;6.15;;;;;;;14.61;100.00;101329.19;5029951;28;20033;-75
2023/11/16 07:56:49;;;;;;;6.25;5.30;;;;;;;14.54;100.00;101325.06;5047877;28;20021;-74
2023/11/16 07:59:18;;;;;;;4.32;2.20;;;;;;;14.45;100.00;101307.38;5047500;28;20107;-72
2023/11/16 08:01:55;;;;;;;2.00;1.20;;;;;;;14.56;100.00;101310.50;5047950;28;20518;-74
2023/11/16 08:04:21;;;;;;;3.90;1.67;;;;;;;14.35;100.00;101269.22;5045363;28;20029;-75
2023/11/16 08:06:47;;;;;;;3.05;1.52;;;;;;;14.01;100.00;101223.03;5045577;28;20086;-75
2023/11/16 08:09:13;;;;;;;3.65;1.10;;;;;;;14.00;100.00;101287.00;5029939;28;20033;-74
2023/11/16 08:11:39;;;;;;;2.55;0.95;;;;;;;14.43;100.00;101356.88;5047584;28;20041;-75
2023/11/16 08:14:07;;;;;;;2.25;1.00;;;;;;;14.23;100.00;101303.56;5047274;28;20453;-75
2023/11/16 08:16:34;;;;;;;1.30;0.90;;;;;;;14.22;100.00;101289.06;5048330;28;20033;-75
2023/11/16 08:19:00;;;;;;;2.72;0.90;;;;;;;14.21;100.00;101296.78;5051044;28;20029;-72
2023/11/16 08:21:26;;;;;;;1.90;0.80;;;;;;;14.63;100.00;101388.00;5049627;28;20056;-74
2023/11/16 08:23:53;;;;;;;2.85;0.82;;;;;;;14.27;100.00;101329.91;5050971;28;20056;-74
2023/11/16 08:26:19;;;;;;;2.58;1.73;;;;;;;14.67;100.00;101389.63;5051102;28;20024;-73
2023/11/16 08:28:46;;;;;;;3.38;1.30;;;;;;;14.42;100.00;101342.41;5051166;28;20020;-76
2023/11/16 08:31:15;;;;;;;2.75;0.90;;;;;;;14.49;100.00;101374.66;5050335;28;20170;-74
2023/11/16 08:33:43;;;;;;;2.58;1.50;;;;;;;14.48;100.00;101373.81;5049853;28;20064;-74
2023/11/16 08:36:13;;;;;;;3.17;1.10;;;;;;;14.51;100.00;101362.69;5033521;28;20040;-75
2023/11/16 08:38:42;;;;;;;2.42;1.23;;;;;;;14.10;100.00;101299.59;5048414;28;20562;-73
2023/11/16 08:41:16;;;;;;;3.70;1.63;;;;;;;14.77;100.00;101351.00;5051209;28;20025;-72
2023/11/16 08:43:43;;;;;;;2.28;1.00;;;;;;;15.02;100.00;101411.88;5050653;28;20029;-72
2023/11/16 08:46:10;;;;;;;4.47;2.10;;;;;;;15.06;100.00;101347.72;5051101;28;20036;-74
2023/11/16 08:48:36;;;;;;;2.65;1.60;;;;;;;15.01;100.00;101311.16;5051298;28;20029;-75
2023/11/16 08:51:05;;;;;;;3.15;1.27;;;;;;;14.97;100.00;101312.09;5050822;28;20506;-74
2023/11/16 08:53:32;;;;;;;4.70;0.70;;;;;;;15.09;100.00;101345.13;5033385;28;20032;-74
2023/11/16 08:55:59;;;;;;;2.63;0.85;;;;;;;15.05;100.00;101284.59;5049358;28;20171;-73
2023/11/16 08:58:29;;;;;;;1.40;0.80;;;;;;;15.42;100.00;101322.94;5050769;28;20033;-75
2023/11/16 09:00:55;;;;;;;0.95;0.50;;;;;;;15.03;100.00;101268.41;5033262;28;20511;-73
2023/11/16 09:03:21;;;;;;;2.78;0.60;;;;;;;15.53;100.00;101297.84;5050785;28;20021;-74
2023/11/16 09:05:47;;;;;;;1.42;0.80;;;;;;;15.47;100.00;101283.47;5050414;28;20056;-73
2023/11/16 09:08:13;;;;;;;1.30;0.80;;;;;;;15.55;100.00;101252.50;5050125;28;20092;-74
2023/11/16 09:10:41;;;;;;;8.55;0.90;;;;;;;15.47;100.00;101262.13;5050520;28;20036;-73
2023/11/16 09:13:08;;;;;;;1.30;0.70;;;;;;;15.12;100.00;101196.44;5032658;28;20036;-73
2023/11/16 09:15:33;;;;;;;1.77;0.85;;;;;;;15.52;100.00;101252.59;5050253;28;20423;-74
2023/11/16 09:17:59;;;;;;;1.58;0.60;;;;;;;15.57;100.00;101235.34;5050782;28;20025;-72
2023/11/16 09:20:28;;;;;;;2.30;1.17;;;;;;;15.38;100.00;101108.59;5050503;28;20090;-74
2023/11/16 09:22:57;;;;;;;2.30;0.77;;;;;;;15.85;100.00;101184.09;5031576;28;20021;-74
2023/11/16 09:25:25;;;;;;;1.33;0.73;;;;;;;15.81;100.00;101180.81;5050219;28;20151;-73
2023/11/16 09:27:54;;;;;;;1.98;0.68;;;;;;;15.98;100.00;101180.31;5049823;28;20044;-75
2023/11/16 09:30:29;;;;;;;1.20;0.60;;;;;;;15.53;100.00;101110.72;5050623;28;20127;-75
2023/11/16 09:32:57;;;;;;;2.10;0.98;;;;;;;15.88;100.00;101172.06;5033026;28;20507;-76
2023/11/16 09:35:24;;;;;;;1.48;0.70;;;;;;;15.80;100.00;101143.22;5032785;28;20029;-74
2023/11/16 09:37:53;;;;;;;1.50;0.80;;;;;;;15.91;100.00;101123.22;5050248;28;20037;-75
2023/11/16 09:40:30;;;;;;;2.95;0.55;;;;;;;16.11;100.00;101167.03;5049232;28;20040;-74
2023/11/16 09:45:42;;;;;;;1.30;0.70;;;;;;;15.99;100.00;101136.63;5050167;28;20246;-72
2023/11/16 09:48:12;;;;;;;1.23;0.80;;;;;;;16.24;100.00;101126.44;5048817;28;20082;-74
2023/11/16 09:50:44;;;;;;;1.02;0.52;;;;;;;16.12;100.00;101124.25;5032100;28;20021;-74
2023/11/16 09:53:14;;;;;;;2.30;0.80;;;;;;;16.25;100.00;101128.94;5049020;28;20036;-74
2023/11/16 09:55:44;;;;;;;2.47;0.93;;;;;;;16.10;100.00;101124.28;5049274;28;20041;-74
2023/11/16 09:58:17;;;;;;;2.53;0.52;;;;;;;15.42;100.00;100985.47;5048903;28;20033;-74
2023/11/16 10:00:48;;;;;;;1.17;0.50;;;;;;;15.88;100.00;101053.22;5031697;28;20136;-73
2023/11/16 10:03:21;;;;;;;2.22;1.00;;;;;;;16.08;100.00;101048.28;5048352;28;20036;-73
2023/11/16 10:05:47;;;;;;;0.85;0.55;;;;;;;16.14;100.00;101100.22;5031844;28;20102;-76
2023/11/16 10:08:15;;;;;;;2.05;1.00;;;;;;;15.89;100.00;101039.50;5048321;28;20033;-74
2023/11/16 10:11:06;;;;;;;2.05;1.27;;;;;;;16.18;100.00;101016.28;5032719;28;20044;-75
2023/11/16 10:13:36;;;;;;;5.83;2.20;;;;;;;16.61;100.00;101065.28;5045751;28;20094;-75
2023/11/16 10:16:09;;;;;;;3.63;2.00;;;;;;;16.33;100.00;101006.34;5049909;28;20108;-74
2023/11/16 10:18:35;;;;;;;3.45;1.88;;;;;;;16.14;100.00;101001.88;5049585;28;20036;-73
2023/11/16 10:21:05;;;;;;;2.45;1.35;;;;;;;15.88;100.00;100978.84;5031331;28;20029;-77
2023/11/16 10:23:31;;;;;;;3.90;1.40;;;;;;;16.28;100.00;100997.94;5050540;28;20029;-79
2023/11/16 10:26:00;;;;;;;1.40;1.13;;;;;;;16.33;100.00;101001.19;5049576;28;20064;-76
2023/11/16 10:28:26;;;;;;;2.42;0.70;;;;;;;16.41;100.00;101060.81;5049787;28;20017;-78
2023/11/16 10:30:54;;;;;;;1.70;0.85;;;;;;;16.56;100.00;100992.69;5049635;28;20058;-74
2023/11/16 10:33:23;;;;;;;1.92;0.75;;;;;;;16.65;100.00;100971.00;5048696;28;20033;-73
2023/11/16 10:36:01;;;;;;;2.10;0.60;;;;;;;16.64;100.00;101043.81;5048604;28;20044;-74
2023/11/16 10:38:32;;;;;;;2.15;0.73;;;;;;;16.66;100.00;101006.88;5045048;28;20396;-73
2023/11/16 10:40:58;;;;;;;1.77;0.90;;;;;;;16.49;100.00;100960.44;5047024;28;20044;-72
2023/11/16 10:43:25;;;;;;;2.38;0.88;;;;;;;17.02;100.00;101010.66;5048906;28;20526;-72
2023/11/16 10:46:00;;;;;;;1.85;0.55;;;;;;;16.94;100.00;101009.25;5047249;28;20032;-74
2023/11/16 10:48:26;;;;;;;1.50;0.70;;;;;;;17.00;100.00;100993.63;5044033;28;20025;-74
2023/11/16 10:50:55;;;;;;;1.98;0.60;;;;;;;16.94;100.00;100981.84;5029821;28;20029;-76
2023/11/16 10:53:34;;;;;;;2.55;0.60;;;;;;;16.43;100.00;100940.94;5045443;28;20051;-76
2023/11/16 10:56:01;;;;;;;2.05;1.58;;;;;;;16.64;100.00;100926.47;5028351;28;20029;-73
2023/11/16 10:58:27;;;;;;;2.58;1.65;;;;;;;17.02;100.00;100966.97;5029588;28;20423;-75
2023/11/16 11:00:56;;;;;;;1.65;0.80;;;;;;;16.66;100.00;100999.16;5048594;28;20017;-73
2023/11/16 11:03:23;;;;;;;2.67;1.20;;;;;;;16.51;100.00;100989.47;5047578;28;20029;-75
2023/11/16 11:05:55;;;;;;;2.53;1.00;;;;;;;16.41;100.00;100976.09;5048473;28;20065;-74
2023/11/16 11:08:21;;;;;;;;;;;;;;;16.39;100.00;101008.69;5048571;28;21751;-75
2023/11/16 11:10:49;;;;;;;3.40;0.93;;;;;;;16.58;100.00;100949.00;5030570;28;19916;-74
2023/11/16 11:13:27;;;;;;;1.60;0.85;;;;;;;16.48;100.00;100915.06;5030329;28;20040;-74
2023/11/16 11:15:53;;;;;;;1.08;0.50;;;;;;;16.98;100.00;100977.41;5047364;28;20186;-73
2023/11/16 11:18:26;;;;;;;1.58;0.80;;;;;;;17.17;100.00;100961.22;5030460;28;20666;-75
2023/11/16 11:21:07;;;;;;;1.73;0.75;;;;;;;17.40;100.00;100951.78;5047745;28;20029;-74